Mobile Downtown Airport Mobile US
ICAO: KBFM
IATA: BFM
Category: Medium
Scheduled Services: No

Elevation: 26 ft
TransAlt. 18000 ft.

Airport Communications:
APP/DEP:118.5
ATIS:135.575
CTAF:118.8
GND:121.7
ANNISTON RDO:112.8
DOWNTOWN TWR:118.8
UNICOM:122.95

KBFM Zoom In..

Runways:

(A) RW 14 length 9618 ft width 150 ft
---- / hdg 140

(B) RW 18 length 7800 ft width 150 ft
---- / hdg 181

(C) RW 32 length 9618 ft width 150 ft
ILS 108.50 / hdg 320

(D) RW 36 length 7800 ft width 150 ft
---- / hdg 1

Location; KBFM
Day. 20 / Time. 19.53 Zulu
* Altimeter: 29.94
* Temperature: 31° c. 87.8°f.
* Wind from: 150° Speed 06 kn.
Dewpoint: 28° c.
Visibility: 10 Statute Miles.
Clouds: Broken 2800 ft.
Clouds: Broken 6000 ft.
Conditions: Light Rain.Conditions: Towering CB.

KBFM 201953Z 15006KT 10SM -RA BKN028TCU BKN060 31/28 A2994 RMK AO2 LTG DSNT SW RAB32 SLP139 TCU ALQDS P0001 T03060278


Wind From 150°
Speed 06 kn.

 
 
jpsmedia.com for Web Design worldairports.se 2018   terms of use